Columbia — WYR2092 — position and weather

sailwx.info

Track history (hours):
 
Tides and Currents Weather Stations Pressure Air Temp Water Temp Dewpoint Dewpoint Depression Visibility Wind Speed Wind Dir Waves Ship Positions

Columbia

More information available from US FCC via Universal Licensing System and Coast Guard Vessel Documentation Center.

Last reported at 2014-Aug-22 23:28 UTC. Time now 2014-Aug-22 23:40 UTC.
Position N 48°43' W 122°31'.

Type: Ship. MMSI: 367144000.

Date/timePositionNaut miles runAvg speedWind from/ knotsBaromVisibWave heightAir tempDewpointWater temp
2014-Aug-22 23:28N 48°43' W 122°31'0 0.0
2014-Aug-22 22:28N 48°43' W 122°31'0 0.0
2014-Aug-22 20:22N 48°43' W 122°31'0 0.0
2014-Aug-22 19:22N 48°43' W 122°31'1 0.1
2014-Aug-22 14:33N 48°43' W 122°32'9 8.7
2014-Aug-22 13:33N 48°42' W 122°45'1515.5
2014-Aug-22 12:34N 48°52' W 123°03'1716.9
2014-Aug-22 11:34N 49°03' W 123°23'1716.6
2014-Aug-22 10:34N 49°15' W 123°40'1616.1
2014-Aug-22 09:33N 49°23' W 124°01'1616.1
2014-Aug-22 08:33N 49°29' W 124°24'2117.0
2014-Aug-22 07:18N 49°44' W 124°48'7412.4
2014-Aug-22 01:19N 50°30' W 126°19'1315.3
2014-Aug-22 00:30N 50°31' W 126°38'1414.8
2014-Aug-21 23:33N 50°41' W 126°54'1616.3
2014-Aug-21 22:33N 50°51' W 127°15'1616.2
2014-Aug-21 21:33N 51°00' W 127°36'1615.9
2014-Aug-21 20:33N 51°13' W 127°51'1716.6
2014-Aug-21 19:33N 51°29' W 127°51'3416.7
2014-Aug-21 17:32N 52°03' W 127°55'1110.8
2014-Aug-21 16:33N 52°10' W 128°08'1412.8
2014-Aug-21 15:29N 52°17' W 128°27'13214.7
2014-Aug-21 06:32N 54°09' W 130°24'1616.3
2014-Aug-21 05:33N 54°23' W 130°37'1616.2
2014-Aug-21 04:33N 54°38' W 130°45'  
2014-Aug-17 10:32N 54°40' W 130°47'1717.5
2014-Aug-17 09:34N 54°24' W 130°37'1716.8
2014-Aug-17 08:33N 54°08' W 130°24'13614.6
2014-Aug-16 23:14N 52°15' W 128°20'913.3
2014-Aug-16 22:33N 52°11' W 128°06'10 9.4
2014-Aug-16 21:31N 52°04' W 127°56'3317.1
2014-Aug-16 19:33N 51°30' W 127°52'1717.1
2014-Aug-16 18:33N 51°13' W 127°52'1616.1
2014-Aug-16 17:33N 51°01' W 127°36'1615.7
2014-Aug-16 16:33N 50°52' W 127°16'1817.3
2014-Aug-16 15:31N 50°41' W 126°53'8614.1
2014-Aug-16 09:24N 49°52' W 125°01'1414.6
2014-Aug-16 08:27N 49°43' W 124°46'1415.9
2014-Aug-16 07:33N 49°33' W 124°30'1515.3
2014-Aug-16 06:33N 49°24' W 124°10'1615.6
2014-Aug-16 05:33N 49°20' W 123°48'1615.8
2014-Aug-16 04:33N 49°09' W 123°29'1616.2
2014-Aug-16 03:33N 48°58' W 123°11'1615.7
2014-Aug-16 02:33N 48°48' W 122°53'1615.6
2014-Aug-16 01:33N 48°39' W 122°34'5 0.5
2014-Aug-15 14:33N 48°44' W 122°31'9 8.8
2014-Aug-15 13:33N 48°42' W 122°44'1413.8
2014-Aug-15 12:34N 48°50' W 123°01'1414.3
2014-Aug-15 11:34N 48°59' W 123°17'1414.4
2014-Aug-15 10:34N 49°10' W 123°32'1514.7
2014-Aug-15 09:33N 49°21' W 123°48'1514.7
2014-Aug-15 08:33N 49°24' W 124°10'1414.4
2014-Aug-15 07:33N 49°32' W 124°29'1814.8
2014-Aug-15 06:21N 49°45' W 124°48'6713.6
2014-Aug-15 01:25N 50°28' W 126°07'1416.0
2014-Aug-15 00:33N 50°30' W 126°28'1815.0
2014-Aug-14 23:20N 50°41' W 126°52'1316.5
2014-Aug-14 22:33N 50°49' W 127°08'1616.1
2014-Aug-14 21:33N 50°57' W 127°29'1616.4
2014-Aug-14 20:33N 51°08' W 127°49'1716.4
2014-Aug-14 19:31N 51°25' W 127°51'2116.8
2014-Aug-14 18:16N 51°46' W 127°56'1217.0
2014-Aug-14 17:33N 51°58' W 127°56'1312.9
2014-Aug-14 16:33N 52°09' W 128°08'1310.5
2014-Aug-14 15:17N 52°16' W 128°26'13315.1
2014-Aug-14 06:26N 54°09' W 130°24'1517.0
2014-Aug-14 05:33N 54°22' W 130°37'1716.7
2014-Aug-14 04:32N 54°38' W 130°45'  
Track history (hours):
 
Tides and Currents Weather Stations Pressure Air Temp Water Temp Dewpoint Dewpoint Depression Visibility Wind Speed Wind Dir Waves Ship Positions

Columbia

More information available from US FCC via Universal Licensing System and Coast Guard Vessel Documentation Center.

Last reported at 2014-Aug-22 23:28 UTC. Time now 2014-Aug-22 23:40 UTC.
Position N 48°43' W 122°31'.

Type: Ship. MMSI: 367144000.

Date/timePositionNaut miles runAvg speedWind from/ knotsBaromVisibWave heightAir tempDewpointWater temp
2014-Aug-22 23:28N 48°43' W 122°31'0 0.0
2014-Aug-22 22:28N 48°43' W 122°31'0 0.0
2014-Aug-22 20:22N 48°43' W 122°31'0 0.0
2014-Aug-22 19:22N 48°43' W 122°31'1 0.1
2014-Aug-22 14:33N 48°43' W 122°32'9 8.7
2014-Aug-22 13:33N 48°42' W 122°45'1515.5
2014-Aug-22 12:34N 48°52' W 123°03'1716.9
2014-Aug-22 11:34N 49°03' W 123°23'1716.6
2014-Aug-22 10:34N 49°15' W 123°40'1616.1
2014-Aug-22 09:33N 49°23' W 124°01'1616.1
2014-Aug-22 08:33N 49°29' W 124°24'2117.0
2014-Aug-22 07:18N 49°44' W 124°48'7412.4
2014-Aug-22 01:19N 50°30' W 126°19'1315.3
2014-Aug-22 00:30N 50°31' W 126°38'1414.8
2014-Aug-21 23:33N 50°41' W 126°54'1616.3
2014-Aug-21 22:33N 50°51' W 127°15'1616.2
2014-Aug-21 21:33N 51°00' W 127°36'1615.9
2014-Aug-21 20:33N 51°13' W 127°51'1716.6
2014-Aug-21 19:33N 51°29' W 127°51'3416.7
2014-Aug-21 17:32N 52°03' W 127°55'1110.8
2014-Aug-21 16:33N 52°10' W 128°08'1412.8
2014-Aug-21 15:29N 52°17' W 128°27'13214.7
2014-Aug-21 06:32N 54°09' W 130°24'1616.3
2014-Aug-21 05:33N 54°23' W 130°37'1616.2
2014-Aug-21 04:33N 54°38' W 130°45'  
2014-Aug-17 10:32N 54°40' W 130°47'1717.5
2014-Aug-17 09:34N 54°24' W 130°37'1716.8
2014-Aug-17 08:33N 54°08' W 130°24'13614.6
2014-Aug-16 23:14N 52°15' W 128°20'913.3
2014-Aug-16 22:33N 52°11' W 128°06'10 9.4
2014-Aug-16 21:31N 52°04' W 127°56'3317.1
2014-Aug-16 19:33N 51°30' W 127°52'1717.1
2014-Aug-16 18:33N 51°13' W 127°52'1616.1
2014-Aug-16 17:33N 51°01' W 127°36'1615.7
2014-Aug-16 16:33N 50°52' W 127°16'1817.3
2014-Aug-16 15:31N 50°41' W 126°53'8614.1
2014-Aug-16 09:24N 49°52' W 125°01'1414.6
2014-Aug-16 08:27N 49°43' W 124°46'1415.9
2014-Aug-16 07:33N 49°33' W 124°30'1515.3
2014-Aug-16 06:33N 49°24' W 124°10'1615.6
2014-Aug-16 05:33N 49°20' W 123°48'1615.8
2014-Aug-16 04:33N 49°09' W 123°29'1616.2
2014-Aug-16 03:33N 48°58' W 123°11'1615.7
2014-Aug-16 02:33N 48°48' W 122°53'1615.6
2014-Aug-16 01:33N 48°39' W 122°34'5 0.5
2014-Aug-15 14:33N 48°44' W 122°31'9 8.8
2014-Aug-15 13:33N 48°42' W 122°44'1413.8
2014-Aug-15 12:34N 48°50' W 123°01'1414.3
2014-Aug-15 11:34N 48°59' W 123°17'1414.4
2014-Aug-15 10:34N 49°10' W 123°32'1514.7
2014-Aug-15 09:33N 49°21' W 123°48'1514.7
2014-Aug-15 08:33N 49°24' W 124°10'1414.4
2014-Aug-15 07:33N 49°32' W 124°29'1814.8
2014-Aug-15 06:21N 49°45' W 124°48'6713.6
2014-Aug-15 01:25N 50°28' W 126°07'1416.0
2014-Aug-15 00:33N 50°30' W 126°28'1815.0
2014-Aug-14 23:20N 50°41' W 126°52'1316.5
2014-Aug-14 22:33N 50°49' W 127°08'1616.1
2014-Aug-14 21:33N 50°57' W 127°29'1616.4
2014-Aug-14 20:33N 51°08' W 127°49'1716.4
2014-Aug-14 19:31N 51°25' W 127°51'2116.8
2014-Aug-14 18:16N 51°46' W 127°56'1217.0
2014-Aug-14 17:33N 51°58' W 127°56'1312.9
2014-Aug-14 16:33N 52°09' W 128°08'1310.5
2014-Aug-14 15:17N 52°16' W 128°26'13315.1
2014-Aug-14 06:26N 54°09' W 130°24'1517.0
2014-Aug-14 05:33N 54°22' W 130°37'1716.7
2014-Aug-14 04:32N 54°38' W 130°45'  

Dump ship's entire track history